Time;durP1;ratioP1;P1;durP2;ratioP2;P2;SDS_P1;SDS_P2;PMS_P1;PMS_P2;Temp;Humidity;BMP_temperature;BMP_pressure;BME280_temperature;BME280_humidity;BME280_pressure;Samples;Min_cycle;Max_cycle;Signal;HPM_P1;HPM_P2
2022/12/01 00:00:55;;;;;;;5.70;1.75;;;;;;;-1.03;99.96;102042.22;10336102;28;20558;-70
2022/12/01 00:06:17;;;;;;;6.50;2.03;;;;;;;-0.99;99.67;102034.28;10335504;28;20073;-71
2022/12/01 00:11:18;;;;;;;4.90;1.90;;;;;;;-0.69;99.53;102099.31;10335704;28;20085;-70
2022/12/01 00:16:18;;;;;;;3.80;1.58;;;;;;;-0.57;99.74;102132.00;10335624;28;20042;-70
2022/12/01 00:21:22;;;;;;;5.05;1.63;;;;;;;-0.69;100.00;102130.66;10335071;28;20445;-70
2022/12/01 00:26:24;;;;;;;7.03;1.73;;;;;;;-0.74;99.97;102143.03;10334561;28;20054;-70
2022/12/01 00:31:26;;;;;;;6.32;1.70;;;;;;;-0.84;100.00;102121.56;10336179;28;20042;-69
2022/12/01 00:36:27;;;;;;;3.90;1.50;;;;;;;-0.95;100.00;102134.13;10334825;28;20050;-70
2022/12/01 00:41:27;;;;;;;4.95;2.00;;;;;;;-0.95;100.00;102139.34;10333585;28;20387;-71
2022/12/01 00:46:28;;;;;;;3.92;1.40;;;;;;;-0.89;100.00;102126.09;10334291;28;20081;-70
2022/12/01 00:51:29;;;;;;;3.17;1.23;;;;;;;-0.78;100.00;102133.56;10334488;28;20054;-70
2022/12/01 00:56:30;;;;;;;7.70;1.52;;;;;;;-0.73;100.00;102119.47;10333979;28;20038;-70
2022/12/01 01:01:31;;;;;;;4.38;1.23;;;;;;;-0.86;100.00;102084.25;10332047;28;20049;-70
2022/12/01 01:06:32;;;;;;;3.00;1.45;;;;;;;-1.25;100.00;102027.31;10333533;28;20070;-71
2022/12/01 01:11:32;;;;;;;3.30;1.35;;;;;;;-0.74;100.00;102112.53;10332846;28;20510;-70
2022/12/01 01:16:34;;;;;;;7.35;1.38;;;;;;;-0.86;100.00;102089.47;10333420;28;20125;-70
2022/12/01 01:21:34;;;;;;;3.97;1.60;;;;;;;-0.74;100.00;102109.94;10333355;28;20050;-70
2022/12/01 01:26:36;;;;;;;5.68;1.30;;;;;;;-0.72;100.00;102100.31;10332741;28;20034;-71
2022/12/01 01:31:36;;;;;;;2.40;1.00;;;;;;;-0.64;100.00;102101.78;10332142;28;20465;-70
2022/12/01 01:36:37;;;;;;;5.15;1.30;;;;;;;-1.10;99.97;102017.28;10332554;28;20096;-70
2022/12/01 01:41:38;;;;;;;2.40;1.05;;;;;;;-0.57;100.00;102121.53;10332883;28;20046;-70
2022/12/01 01:46:39;;;;;;;3.60;1.30;;;;;;;-0.51;99.70;102126.56;10332279;28;20038;-71
2022/12/01 01:51:44;;;;;;;7.60;1.33;;;;;;;-0.58;99.71;102107.66;10331725;28;20100;-70
2022/12/01 01:56:46;;;;;;;4.18;1.42;;;;;;;-0.50;99.53;102115.22;10330314;28;20124;-70
2022/12/01 02:01:55;;;;;;;3.78;1.20;;;;;;;-0.57;99.47;102118.94;10331305;28;20042;-70
2022/12/01 02:06:56;;;;;;;4.63;1.10;;;;;;;-0.58;99.08;102120.69;10331875;28;20038;-71
2022/12/01 02:12:19;;;;;;;4.57;1.30;;;;;;;-0.55;99.40;102130.19;10332483;28;20051;-70
2022/12/01 02:17:43;;;;;;;4.28;1.13;;;;;;;-0.57;99.70;102118.94;10331334;28;20042;-70
2022/12/01 02:23:02;;;;;;;3.28;1.60;;;;;;;-0.63;99.50;102104.34;10331003;28;20046;-70
2022/12/01 02:28:18;;;;;;;3.95;1.30;;;;;;;-0.63;99.56;102120.00;10327647;28;20077;-71
2022/12/01 02:33:30;;;;;;;8.85;1.50;;;;;;;-0.78;99.45;102102.25;10306135;28;20047;-71
2022/12/01 02:38:55;;;;;;;4.55;1.27;;;;;;;-0.67;99.22;102117.56;10297625;28;20078;-70
2022/12/01 02:44:10;;;;;;;6.60;1.13;;;;;;;-0.72;99.13;102128.13;10304472;28;20125;-71
2022/12/01 02:49:18;;;;;;;4.28;1.10;;;;;;;-1.38;99.19;102039.91;10292936;28;20058;-69
2022/12/01 02:54:19;;;;;;;4.60;1.30;;;;;;;-1.30;99.13;102054.44;10289391;28;20097;-70
2022/12/01 02:59:20;;;;;;;7.32;1.13;;;;;;;-1.03;100.00;102104.84;10290980;28;20101;-70
2022/12/01 03:04:58;;;;;;;4.10;1.08;;;;;;;-0.90;100.00;102147.00;10296768;28;20034;-71
2022/12/01 03:10:23;;;;;;;9.75;1.20;;;;;;;-1.02;100.00;102148.25;10298410;28;20423;-70
2022/12/01 03:15:45;;;;;;;4.85;1.10;;;;;;;-1.08;100.00;102154.53;10305169;28;20049;-71
2022/12/01 03:21:11;;;;;;;4.70;1.35;;;;;;;-1.41;100.00;102106.91;10338011;28;20137;-70
2022/12/01 03:26:17;;;;;;;5.60;1.20;;;;;;;-1.19;99.96;102162.72;10336117;28;20104;-70
2022/12/01 03:31:25;;;;;;;6.25;1.17;;;;;;;-1.22;99.58;102154.13;10335659;28;20050;-70
2022/12/01 03:36:32;;;;;;;7.65;1.38;;;;;;;-1.41;99.87;102131.25;10290957;28;20508;-68
2022/12/01 03:41:42;;;;;;;4.55;1.23;;;;;;;-1.54;100.00;102102.97;10257457;28;20079;-68
2022/12/01 03:46:49;;;;;;;3.63;1.40;;;;;;;-1.24;99.95;102164.59;10308286;28;20057;-70
2022/12/01 03:51:57;;;;;;;5.40;1.20;;;;;;;-1.27;100.00;102169.06;10312257;28;20529;-70
2022/12/01 03:57:10;;;;;;;5.20;1.10;;;;;;;-1.83;100.00;102081.25;10331065;28;20068;-70
2022/12/01 04:02:11;;;;;;;9.20;1.08;;;;;;;-1.91;100.00;102070.22;10296921;28;20115;-70
2022/12/01 04:07:13;;;;;;;3.35;1.05;;;;;;;-1.39;100.00;102160.69;10320890;28;20601;-70
2022/12/01 04:12:29;;;;;;;3.08;1.10;;;;;;;-1.55;100.00;102132.56;10315857;28;20106;-70
2022/12/01 04:17:30;;;;;;;7.68;1.30;;;;;;;-1.76;100.00;102103.63;10294503;28;20081;-71
2022/12/01 04:22:32;;;;;;;3.28;0.60;;;;;;;-2.15;100.00;102022.34;10296384;28;20077;-70
2022/12/01 04:27:34;;;;;;;4.10;1.15;;;;;;;-1.30;100.00;102169.16;10312782;28;20046;-71
2022/12/01 04:32:42;;;;;;;6.35;1.02;;;;;;;-2.25;100.00;102013.91;10335087;28;20514;-70
2022/12/01 04:37:43;;;;;;;7.10;1.20;;;;;;;-1.54;100.00;102144.69;10254356;28;20039;-72
2022/12/01 04:42:43;;;;;;;4.15;1.00;;;;;;;-1.21;100.00;102179.28;10253743;28;20043;-71
2022/12/01 04:47:44;;;;;;;6.57;1.40;;;;;;;-1.24;100.00;102187.22;10256758;28;20058;-72
2022/12/01 04:52:45;;;;;;;5.55;1.00;;;;;;;-1.23;100.00;102188.91;10310897;28;20057;-71
2022/12/01 04:57:46;;;;;;;10.65;1.20;;;;;;;-1.17;100.00;102202.63;10330580;28;20046;-72
2022/12/01 05:02:47;;;;;;;3.28;0.98;;;;;;;-1.50;100.00;102110.66;10328587;28;20034;-71
2022/12/01 05:07:47;;;;;;;2.70;0.90;;;;;;;-1.18;99.34;102116.63;10328494;28;20042;-72
2022/12/01 05:12:48;;;;;;;5.78;1.10;;;;;;;-1.43;98.96;102103.50;10332173;28;20038;-70
2022/12/01 05:17:49;;;;;;;4.13;1.10;;;;;;;-0.95;99.80;102207.19;10333882;28;20489;-70
2022/12/01 05:22:51;;;;;;;3.95;1.10;;;;;;;-0.75;99.59;102214.34;10332319;28;20053;-70
2022/12/01 05:27:52;;;;;;;6.15;1.40;;;;;;;-0.92;99.52;102147.94;10332643;28;20061;-73
2022/12/01 05:32:52;;;;;;;10.20;1.27;;;;;;;-0.59;99.03;102204.28;10331945;28;20077;-70
2022/12/01 05:37:55;;;;;;;3.78;1.23;;;;;;;-0.42;98.78;102211.53;10331919;28;20050;-70
2022/12/01 05:42:56;;;;;;;5.68;1.35;;;;;;;-0.51;97.62;102158.75;10331744;28;20050;-70
2022/12/01 05:47:59;;;;;;;2.92;0.90;;;;;;;0.08;97.15;102216.78;10332654;28;20096;-71
2022/12/01 05:53:00;;;;;;;2.40;0.90;;;;;;;0.29;97.11;102216.00;10331072;28;20569;-71
2022/12/01 05:58:01;;;;;;;5.78;1.38;;;;;;;0.35;96.31;102189.66;10332580;28;20101;-70
2022/12/01 06:03:02;;;;;;;5.25;1.20;;;;;;;0.24;95.89;102150.00;10331902;28;20045;-72
2022/12/01 06:08:03;;;;;;;3.45;0.85;;;;;;;0.67;95.29;102221.59;10332223;28;20045;-71
2022/12/01 06:13:03;;;;;;;5.20;0.82;;;;;;;0.82;94.36;102194.00;10332005;28;20121;-71
2022/12/01 06:18:04;;;;;;;7.72;1.48;;;;;;;0.69;93.54;102177.94;10330961;28;20038;-72
2022/12/01 06:23:05;;;;;;;4.47;1.20;;;;;;;0.99;93.91;102216.88;10331477;28;20490;-72
2022/12/01 06:28:06;;;;;;;4.18;1.33;;;;;;;1.19;93.17;102219.53;10331401;28;20538;-71
2022/12/01 06:33:06;;;;;;;5.78;1.00;;;;;;;1.23;92.79;102209.81;10331602;28;20070;-72
2022/12/01 06:38:07;;;;;;;4.10;1.38;;;;;;;1.21;91.54;102227.34;10331524;28;20557;-71
2022/12/01 06:43:08;;;;;;;5.47;1.45;;;;;;;1.41;92.14;102213.44;10338994;28;20127;-71
2022/12/01 06:48:11;;;;;;;9.10;1.33;;;;;;;1.54;91.67;102194.53;10338597;28;20050;-70
2022/12/01 06:53:12;;;;;;;5.25;1.10;;;;;;;1.71;91.14;102196.47;10337400;28;20070;-72
2022/12/01 06:58:12;;;;;;;10.60;1.25;;;;;;;1.94;90.14;102203.31;10337819;28;20170;-73
2022/12/01 07:03:13;;;;;;;5.15;1.10;;;;;;;1.69;90.30;102129.31;10337711;28;20133;-72
2022/12/01 07:08:14;;;;;;;4.07;1.23;;;;;;;1.81;90.01;102092.09;10337599;28;20517;-72
2022/12/01 07:13:15;;;;;;;5.07;0.93;;;;;;;2.11;89.31;102109.97;10338039;28;20050;-71
2022/12/01 07:18:15;;;;;;;7.40;1.20;;;;;;;2.68;87.82;102187.72;10336858;28;20045;-71
2022/12/01 07:23:16;;;;;;;6.10;1.02;;;;;;;2.46;87.83;102180.00;10337489;28;20434;-73
2022/12/01 07:28:17;;;;;;;4.88;0.98;;;;;;;2.41;88.50;102173.28;10337607;28;20038;-72
2022/12/01 07:33:17;;;;;;;5.72;1.00;;;;;;;2.62;88.39;102163.56;10336662;28;20414;-72
2022/12/01 07:38:18;;;;;;;5.93;0.98;;;;;;;3.15;87.57;102187.25;10337454;28;20061;-72
2022/12/01 07:43:19;;;;;;;5.13;1.23;;;;;;;2.94;87.48;102080.66;10335730;28;20042;-72
2022/12/01 07:48:20;;;;;;;5.53;1.38;;;;;;;3.55;86.33;102158.97;10336261;28;20050;-72
2022/12/01 07:53:22;;;;;;;6.60;1.10;;;;;;;3.74;85.99;102155.41;10336311;28;20057;-71
2022/12/01 07:58:23;;;;;;;5.50;1.08;;;;;;;3.95;86.27;102142.91;10335348;28;20045;-71
2022/12/01 08:03:24;;;;;;;5.65;1.10;;;;;;;3.42;83.40;102052.81;10336417;28;20042;-71
2022/12/01 08:08:25;;;;;;;6.50;1.55;;;;;;;3.97;82.69;102125.28;10334828;28;20035;-71
2022/12/01 08:13:26;;;;;;;4.53;1.20;;;;;;;3.84;84.09;102112.78;10335318;28;20333;-69
2022/12/01 08:18:27;;;;;;;5.10;1.17;;;;;;;3.53;82.37;102033.84;10335694;28;20046;-70
2022/12/01 08:23:28;;;;;;;4.70;0.98;;;;;;;3.78;82.83;102031.63;10334986;28;20050;-72
2022/12/01 08:28:29;;;;;;;7.43;1.33;;;;;;;4.29;83.23;102099.88;10335642;28;20039;-71
2022/12/01 08:33:30;;;;;;;4.00;1.02;;;;;;;4.66;82.43;102103.09;10335048;28;20430;-71
2022/12/01 08:38:31;;;;;;;5.03;1.13;;;;;;;4.61;81.92;102095.47;10335362;28;20049;-72
2022/12/01 08:43:32;;;;;;;4.38;1.17;;;;;;;4.06;81.35;101967.84;10333815;28;20518;-72
2022/12/01 08:48:34;;;;;;;4.78;1.13;;;;;;;4.89;81.40;102081.56;10334692;28;20066;-72
2022/12/01 08:53:37;;;;;;;3.88;0.95;;;;;;;4.35;82.15;101987.25;10334845;28;20133;-72
2022/12/01 08:58:37;;;;;;;7.38;1.38;;;;;;;5.16;80.57;102080.91;10334065;28;20046;-73
2022/12/01 09:03:39;;;;;;;5.22;0.98;;;;;;;4.65;80.99;102001.38;10333196;28;20065;-73
2022/12/01 09:08:40;;;;;;;5.97;1.15;;;;;;;4.95;80.95;102052.25;10334459;28;20490;-71
2022/12/01 09:13:42;;;;;;;6.10;1.67;;;;;;;4.87;81.67;102065.00;10332894;28;20042;-71
2022/12/01 09:18:44;;;;;;;7.68;1.02;;;;;;;4.92;82.27;102030.50;10332721;28;20057;-71
2022/12/01 09:23:46;;;;;;;4.10;1.02;;;;;;;5.06;80.97;102054.25;10333043;28;20137;-73
2022/12/01 09:28:49;;;;;;;12.20;1.25;;;;;;;4.90;81.59;102020.06;10333793;28;20046;-71
2022/12/01 09:33:55;;;;;;;10.35;1.10;;;;;;;5.24;81.46;102004.88;10332185;28;20100;-71
2022/12/01 09:38:56;;;;;;;7.95;1.08;;;;;;;5.41;79.74;102007.31;10332082;28;20042;-71
2022/12/01 09:44:04;;;;;;;7.07;1.17;;;;;;;5.12;80.18;101929.25;10332392;28;20042;-71
2022/12/01 09:49:12;;;;;;;4.47;1.08;;;;;;;5.66;77.61;101995.28;10332650;28;20054;-70
2022/12/01 09:54:13;;;;;;;3.55;1.20;;;;;;;5.70;77.64;102012.59;10332524;28;20482;-71
2022/12/01 09:59:21;;;;;;;5.68;1.13;;;;;;;5.23;77.56;101961.03;10332350;28;20042;-71
2022/12/01 10:04:36;;;;;;;6.25;1.10;;;;;;;5.15;78.91;102015.97;10331849;28;20042;-74
2022/12/01 10:09:46;;;;;;;7.38;1.17;;;;;;;5.37;79.45;102011.09;10331608;28;20030;-73
2022/12/01 10:14:47;;;;;;;7.40;2.25;;;;;;;5.59;78.89;102013.25;10339493;28;20045;-73
2022/12/01 10:20:13;;;;;;;5.85;1.27;;;;;;;5.45;78.69;102016.75;10344488;28;20469;-72
2022/12/01 10:25:16;;;;;;;5.80;1.33;;;;;;;5.35;79.61;102018.25;10344767;28;20038;-72
2022/12/01 10:30:22;;;;;;;9.67;2.70;;;;;;;5.19;80.13;102017.47;10344291;28;20050;-72
2022/12/01 10:35:27;;;;;;;11.95;1.40;;;;;;;4.77;80.04;101954.09;10344602;28;20406;-73
2022/12/01 10:40:33;;;;;;;5.97;1.58;;;;;;;5.22;80.41;102030.47;10343107;28;20069;-72
2022/12/01 10:45:39;;;;;;;12.82;1.80;;;;;;;5.16;80.12;102012.41;10344980;28;20038;-72
2022/12/01 10:50:48;;;;;;;5.15;1.63;;;;;;;5.29;80.67;102026.50;10344743;28;20066;-72
2022/12/01 10:56:07;;;;;;;9.88;1.85;;;;;;;5.10;79.90;101989.06;10343923;28;20042;-73
2022/12/01 11:01:17;;;;;;;5.70;1.23;;;;;;;5.16;80.26;102013.25;10343761;28;20124;-73
2022/12/01 11:06:22;;;;;;;4.45;1.17;;;;;;;5.14;80.26;102030.06;10344233;28;20038;-71
2022/12/01 11:11:39;;;;;;;5.60;0.90;;;;;;;4.16;80.36;101841.06;10344820;28;20046;-72
2022/12/01 11:16:52;;;;;;;6.50;1.40;;;;;;;5.19;80.71;101984.06;10342294;28;20030;-72
2022/12/01 11:21:58;;;;;;;9.88;0.98;;;;;;;5.32;80.05;102005.25;10343597;28;20054;-73
2022/12/01 11:26:59;;;;;;;3.97;0.90;;;;;;;5.03;79.16;101971.00;10338701;28;20068;-73
2022/12/01 11:32:16;;;;;;;8.98;1.33;;;;;;;5.22;79.61;101991.78;10337489;28;20398;-70
2022/12/01 11:37:21;;;;;;;5.07;1.17;;;;;;;5.17;78.57;101983.31;10337533;28;20034;-73
2022/12/01 11:42:24;;;;;;;;;;;;;;;5.37;77.57;101992.66;10337211;28;20066;-71
2022/12/01 11:47:26;;;;;;;7.07;1.10;;;;;;;4.99;79.14;101974.72;10336305;28;19921;-73
2022/12/01 11:52:32;;;;;;;8.68;1.17;;;;;;;5.05;79.01;102010.41;10336484;28;20449;-71
2022/12/01 11:57:33;;;;;;;8.10;0.80;;;;;;;5.03;79.73;101997.34;10335477;28;20050;-72
2022/12/01 12:02:39;;;;;;;12.10;1.17;;;;;;;4.77;79.63;101979.59;10335881;28;20046;-73
2022/12/01 12:08:11;;;;;;;8.68;1.20;;;;;;;4.81;80.31;102004.78;10336463;28;20065;-72
2022/12/01 12:13:14;;;;;;;15.82;1.10;;;;;;;4.72;80.33;102000.06;10332602;28;20042;-74
2022/12/01 12:18:33;;;;;;;4.60;1.07;;;;;;;4.71;81.04;102006.28;10295541;28;20038;-71
2022/12/01 12:24:00;;;;;;;25.23;1.50;;;;;;;4.73;80.27;101986.00;10295733;28;20049;-73
2022/12/01 12:29:19;;;;;;;6.20;0.82;;;;;;;4.66;79.41;101996.00;10311796;28;20042;-72
2022/12/01 12:34:48;;;;;;;5.70;1.00;;;;;;;4.58;80.32;102007.00;10305516;28;20046;-72
2022/12/01 12:40:04;;;;;;;10.00;1.13;;;;;;;4.57;80.30;102009.69;10297593;28;20038;-70
2022/12/01 12:45:25;;;;;;;11.13;1.38;;;;;;;4.49;79.58;101999.63;10313157;28;20046;-71
2022/12/01 12:50:39;;;;;;;7.22;1.33;;;;;;;4.19;80.41;101982.94;10309769;28;20141;-71
2022/12/01 12:55:50;;;;;;;6.90;1.17;;;;;;;3.98;80.96;101991.13;10293413;28;20407;-72
2022/12/01 13:01:05;;;;;;;5.78;0.77;;;;;;;3.81;80.37;101983.31;10292993;28;20069;-71
2022/12/01 13:06:13;;;;;;;10.32;1.15;;;;;;;3.86;80.82;101984.75;10293042;28;20045;-70
2022/12/01 13:11:17;;;;;;;12.18;1.23;;;;;;;3.76;81.16;101982.69;10293317;28;20054;-69
2022/12/01 13:16:44;;;;;;;10.43;0.83;;;;;;;2.71;80.63;101848.22;10293261;28;20042;-71
2022/12/01 13:21:47;;;;;;;7.05;1.10;;;;;;;3.40;80.83;102000.34;10293104;28;20341;-69
2022/12/01 13:27:09;;;;;;;11.50;1.10;;;;;;;2.87;81.09;101917.38;10293527;28;20046;-71
2022/12/01 13:32:41;;;;;;;5.50;0.82;;;;;;;2.63;81.27;101910.75;10292808;28;20047;-72
2022/12/01 13:37:42;;;;;;;7.15;0.90;;;;;;;3.24;81.62;102009.13;10292586;28;20043;-68
2022/12/01 13:43:02;;;;;;;6.65;1.05;;;;;;;3.19;81.01;102002.31;10291816;28;20050;-69
2022/12/01 13:48:04;;;;;;;12.98;1.40;;;;;;;3.12;81.40;102031.63;10290458;28;20419;-72
2022/12/01 13:53:37;;;;;;;8.38;0.70;;;;;;;3.13;81.38;102025.44;10291681;28;20174;-73
2022/12/01 13:58:47;;;;;;;7.45;0.98;;;;;;;2.57;81.61;101947.78;10286722;28;20141;-71
2022/12/01 14:03:55;;;;;;;3.97;0.47;;;;;;;2.83;81.34;101993.72;10289811;28;20426;-71
2022/12/01 14:09:03;;;;;;;4.72;0.73;;;;;;;2.64;80.92;101992.03;10292346;28;20495;-71
2022/12/01 14:14:21;;;;;;;4.20;0.80;;;;;;;2.86;81.35;102032.94;10290081;28;20035;-70
2022/12/01 14:19:36;;;;;;;3.67;0.52;;;;;;;2.80;81.43;102047.19;10291017;28;20039;-72
2022/12/01 14:24:41;;;;;;;6.80;0.80;;;;;;;2.60;81.33;102035.06;10289854;28;20066;-71
2022/12/01 14:29:42;;;;;;;3.00;0.68;;;;;;;2.60;81.70;102042.94;10285780;28;20051;-70
2022/12/01 14:34:43;;;;;;;2.58;0.57;;;;;;;2.44;81.22;102039.34;10301949;28;20050;-69
2022/12/01 14:39:56;;;;;;;4.55;0.98;;;;;;;2.34;80.57;102023.22;10246359;28;20062;-71
2022/12/01 14:44:57;;;;;;;3.17;0.63;;;;;;;2.08;80.98;102008.72;10250007;29;20071;-69
2022/12/01 14:50:16;;;;;;;2.15;0.60;;;;;;;2.18;80.51;102024.84;10250179;28;20078;-72
2022/12/01 14:55:24;;;;;;;4.47;0.65;;;;;;;2.02;81.30;102012.47;10250393;29;20141;-71
2022/12/01 15:00:26;;;;;;;4.95;0.68;;;;;;;1.96;80.70;102038.97;10252586;28;20035;-77
2022/12/01 15:05:29;;;;;;;4.78;0.80;;;;;;;1.97;81.19;102042.44;10257001;29;20076;-72
2022/12/01 15:10:36;;;;;;;1.83;0.50;;;;;;;1.82;80.54;102026.53;10257322;28;20043;-79
2022/12/01 15:15:50;;;;;;;4.78;0.80;;;;;;;1.88;81.15;102038.47;10257586;28;20035;-73
2022/12/01 15:21:10;;;;;;;2.80;0.63;;;;;;;1.53;82.31;101995.56;10256586;28;20047;-71
2022/12/01 15:26:23;;;;;;;6.10;0.88;;;;;;;1.60;83.88;102041.50;10257346;28;20035;-72
2022/12/01 15:31:24;;;;;;;5.40;0.88;;;;;;;1.54;84.05;102034.75;10256101;28;20190;-70
2022/12/01 15:36:24;;;;;;;6.82;0.90;;;;;;;1.57;84.60;102057.34;10255388;29;20049;-73
2022/12/01 15:41:25;;;;;;;6.78;0.98;;;;;;;1.29;84.67;102047.25;10291154;28;20055;-74
2022/12/01 15:46:33;;;;;;;2.53;0.70;;;;;;;1.19;84.80;102009.28;10279921;28;20137;-73
2022/12/01 15:51:34;;;;;;;3.38;1.00;;;;;;;1.11;84.76;102022.72;10286752;28;20062;-73
2022/12/01 15:56:39;;;;;;;3.85;0.90;;;;;;;0.66;85.48;101964.41;10281138;28;20065;-72
2022/12/01 16:01:42;;;;;;;5.85;0.95;;;;;;;1.12;85.98;102072.38;10288668;28;20042;-73
2022/12/01 16:06:54;;;;;;;8.75;1.52;;;;;;;0.45;86.67;101953.09;10281642;28;20041;-73
2022/12/01 16:12:13;;;;;;;5.57;1.05;;;;;;;0.96;87.10;102070.44;10297618;28;20562;-73
2022/12/01 16:17:15;;;;;;;3.10;1.10;;;;;;;0.77;87.06;102055.50;10299820;28;20043;-73
2022/12/01 16:22:20;;;;;;;4.20;1.10;;;;;;;0.69;87.04;102062.84;10308837;28;20109;-74
2022/12/01 16:27:29;;;;;;;3.40;1.00;;;;;;;0.59;87.70;102043.19;10309564;28;20073;-75
2022/12/01 16:32:39;;;;;;;3.35;1.13;;;;;;;0.67;87.96;102069.88;10305875;28;20046;-74
2022/12/01 16:37:40;;;;;;;4.35;1.13;;;;;;;0.51;88.33;102058.31;10323463;28;20047;-73
2022/12/01 16:42:41;;;;;;;4.88;1.70;;;;;;;0.38;88.04;102044.91;10321808;28;20409;-74
2022/12/01 16:47:44;;;;;;;5.45;1.17;;;;;;;0.39;88.38;102044.84;10334600;28;20058;-74
2022/12/01 16:52:45;;;;;;;5.75;1.23;;;;;;;-0.03;88.41;101982.91;10314660;28;20093;-74
2022/12/01 16:57:46;;;;;;;2.55;0.80;;;;;;;0.31;88.80;102046.06;10294458;28;20042;-73
2022/12/01 17:02:47;;;;;;;2.55;1.00;;;;;;;0.25;88.94;102039.31;10285409;28;20043;-71
2022/12/01 17:07:48;;;;;;;8.80;1.23;;;;;;;-0.10;88.78;101991.88;10289222;28;20372;-74
2022/12/01 17:12:49;;;;;;;3.72;1.33;;;;;;;0.26;88.58;102045.38;10286501;28;20542;-74
2022/12/01 17:17:50;;;;;;;4.00;1.10;;;;;;;-0.46;88.89;101945.34;10308439;28;20066;-72
2022/12/01 17:22:51;;;;;;;5.93;1.10;;;;;;;0.07;88.97;102045.25;10290259;28;20451;-72
2022/12/01 17:27:52;;;;;;;3.42;0.80;;;;;;;0.10;89.08;102058.19;10289737;28;20133;-74
2022/12/01 17:32:52;;;;;;;2.97;1.13;;;;;;;-0.08;88.83;102017.94;10309041;28;20538;-73
2022/12/01 17:37:53;;;;;;;8.73;1.08;;;;;;;-0.01;88.66;102038.53;10301724;28;20077;-73
2022/12/01 17:42:54;;;;;;;3.33;0.70;;;;;;;-0.14;89.19;102024.25;10290927;28;20046;-73
2022/12/01 17:47:55;;;;;;;6.25;1.00;;;;;;;-0.35;89.21;101999.78;10305104;28;20054;-74
2022/12/01 17:52:56;;;;;;;5.20;1.02;;;;;;;-0.89;89.33;101919.16;10314409;28;20499;-73
2022/12/01 17:57:57;;;;;;;2.10;0.68;;;;;;;-0.52;90.08;102005.63;10291346;28;20047;-73
2022/12/01 18:02:58;;;;;;;3.60;0.95;;;;;;;-0.94;89.59;101953.22;10291139;28;20051;-73
2022/12/01 18:07:59;;;;;;;6.10;1.10;;;;;;;-0.59;90.36;102029.41;10291856;28;20494;-73
2022/12/01 18:13:00;;;;;;;3.88;1.10;;;;;;;-0.69;90.90;102031.47;10291801;28;20129;-72
2022/12/01 18:18:01;;;;;;;3.60;0.95;;;;;;;-0.76;91.47;102027.38;10284476;28;20046;-73
2022/12/01 18:23:01;;;;;;;3.70;0.80;;;;;;;-1.00;91.45;102011.69;10288173;28;20053;-72
2022/12/01 18:28:03;;;;;;;2.22;0.80;;;;;;;-0.90;91.30;102050.50;10280433;28;20070;-71
2022/12/01 18:33:09;;;;;;;3.75;1.00;;;;;;;-1.25;92.19;101980.38;10308184;28;20041;-73
2022/12/01 18:38:10;;;;;;;3.65;0.90;;;;;;;-0.98;92.73;102040.34;10304099;28;20050;-73
2022/12/01 18:43:11;;;;;;;3.25;0.88;;;;;;;-0.96;92.12;102052.41;10312069;28;20141;-72
2022/12/01 18:48:12;;;;;;;3.67;1.10;;;;;;;-1.07;92.87;102027.59;10298857;28;20073;-71
2022/12/01 18:53:13;;;;;;;3.40;0.77;;;;;;;-1.21;93.08;102017.63;10298291;28;20538;-73
2022/12/01 18:58:14;;;;;;;7.90;1.05;;;;;;;-1.09;93.18;102042.44;10298068;28;20380;-71
2022/12/01 19:03:15;;;;;;;4.50;1.13;;;;;;;-1.08;93.54;102047.59;10298640;28;20487;-73
2022/12/01 19:08:16;;;;;;;4.47;1.25;;;;;;;-1.22;93.31;102036.78;10298025;28;20070;-71
2022/12/01 19:13:16;;;;;;;2.50;0.88;;;;;;;-1.55;93.30;101974.44;10297841;28;20066;-72
2022/12/01 19:18:17;;;;;;;8.23;1.38;;;;;;;-1.31;93.31;102029.28;10298291;28;20455;-72
2022/12/01 19:23:18;;;;;;;2.00;0.70;;;;;;;-1.31;93.82;102022.31;10297282;28;20050;-72
2022/12/01 19:28:19;;;;;;;3.45;0.88;;;;;;;-1.24;94.13;102043.81;10296908;28;20038;-72
2022/12/01 19:33:20;;;;;;;4.80;0.90;;;;;;;-1.31;94.15;102034.50;10297118;28;20511;-72
2022/12/01 19:38:20;;;;;;;1.85;0.77;;;;;;;-1.41;94.26;102026.97;10297096;28;20070;-73
2022/12/01 19:43:21;;;;;;;2.95;0.85;;;;;;;-1.54;94.49;102004.78;10297162;28;20101;-73
2022/12/01 19:48:22;;;;;;;3.45;0.68;;;;;;;-1.91;94.07;101958.22;10294211;28;20062;-73
2022/12/01 19:53:23;;;;;;;5.68;0.77;;;;;;;-1.41;95.16;102040.00;10295915;28;20524;-73
2022/12/01 19:58:24;;;;;;;3.03;1.00;;;;;;;-1.58;94.92;102018.00;10296134;28;20038;-73
2022/12/01 20:03:25;;;;;;;3.67;1.00;;;;;;;-1.43;94.49;102038.34;10296498;28;20051;-73
2022/12/01 20:08:25;;;;;;;3.30;1.02;;;;;;;-1.64;95.88;102012.06;10295293;28;20499;-73
2022/12/01 20:13:34;;;;;;;2.30;0.80;;;;;;;-1.54;95.42;102022.19;10295101;28;20050;-73
2022/12/01 20:18:35;;;;;;;6.95;1.00;;;;;;;-1.47;95.20;102039.31;10296122;28;20039;-72
2022/12/01 20:23:36;;;;;;;2.92;0.82;;;;;;;-2.12;95.71;101920.69;10295534;28;20047;-73
2022/12/01 20:28:38;;;;;;;4.05;1.00;;;;;;;-1.56;96.48;102022.22;10295454;28;20526;-72
2022/12/01 20:33:40;;;;;;;2.88;1.02;;;;;;;-1.48;96.15;102022.00;10294377;28;20053;-72
2022/12/01 20:38:41;;;;;;;4.15;1.02;;;;;;;-1.68;96.56;101991.34;10294363;28;20043;-72
2022/12/01 20:43:41;;;;;;;6.15;1.10;;;;;;;-1.97;96.27;101919.38;10294452;28;20054;-72
2022/12/01 20:48:42;;;;;;;5.03;1.02;;;;;;;-1.68;96.42;101965.28;10294393;28;20091;-72
2022/12/01 20:53:43;;;;;;;3.72;1.02;;;;;;;-1.56;96.22;101984.88;10293040;28;20046;-72
2022/12/01 20:58:44;;;;;;;3.92;1.02;;;;;;;-1.44;96.48;102000.97;10292543;28;20047;-72
2022/12/01 21:03:45;;;;;;;2.80;0.90;;;;;;;-1.39;96.71;101999.06;10308582;28;20078;-72
2022/12/01 21:08:48;;;;;;;4.10;0.80;;;;;;;-1.68;96.93;101962.69;10308587;28;20075;-72
2022/12/01 21:13:49;;;;;;;3.92;0.80;;;;;;;-1.44;97.45;101990.53;10300885;28;20407;-72
2022/12/01 21:18:54;;;;;;;3.92;0.85;;;;;;;-1.58;97.40;101981.50;10292696;28;20042;-73
2022/12/01 21:24:07;;;;;;;4.35;1.00;;;;;;;-1.49;97.51;101996.84;10291069;28;20043;-72
2022/12/01 21:29:14;;;;;;;4.55;0.90;;;;;;;-1.61;97.24;101977.25;10299553;28;20050;-71
2022/12/01 21:34:23;;;;;;;5.10;1.00;;;;;;;-1.53;98.17;101993.47;10332810;28;20042;-72
2022/12/01 21:39:25;;;;;;;3.33;0.82;;;;;;;-1.58;98.25;101977.13;10332315;28;20042;-73
2022/12/01 21:44:36;;;;;;;5.20;1.00;;;;;;;-1.95;99.06;101900.16;10317458;28;20129;-72
2022/12/01 21:49:38;;;;;;;4.57;1.25;;;;;;;-1.53;99.07;101980.44;10291602;28;20108;-72
2022/12/01 21:54:39;;;;;;;5.90;1.33;;;;;;;-1.87;99.28;101919.00;10292009;28;20039;-72
2022/12/01 21:59:41;;;;;;;4.53;1.13;;;;;;;-2.07;99.43;101866.69;10291220;28;20081;-73
2022/12/01 22:04:42;;;;;;;3.42;0.80;;;;;;;-1.92;99.33;101892.25;10291390;28;20046;-72
2022/12/01 22:09:43;;;;;;;3.33;1.10;;;;;;;-1.81;99.38;101912.75;10290407;28;20050;-72
2022/12/01 22:14:43;;;;;;;3.13;0.82;;;;;;;-2.01;99.01;101874.31;10291040;28;20043;-72
2022/12/01 22:19:49;;;;;;;5.28;1.23;;;;;;;-1.49;99.33;101955.97;10292089;28;20070;-72
2022/12/01 22:24:52;;;;;;;3.35;0.85;;;;;;;-1.61;99.56;101945.97;10290624;28;20042;-73
2022/12/01 22:30:16;;;;;;;3.80;1.10;;;;;;;-1.52;100.00;101940.44;10290923;28;20051;-73
2022/12/01 22:35:25;;;;;;;4.70;0.88;;;;;;;-1.84;99.69;101882.44;10290672;28;20047;-72
2022/12/01 22:40:40;;;;;;;3.15;0.70;;;;;;;-1.71;99.95;101921.09;10290683;28;20058;-73
2022/12/01 22:45:41;;;;;;;3.47;0.98;;;;;;;-1.60;99.47;101937.25;10291232;28;20380;-73
2022/12/01 22:50:42;;;;;;;4.90;1.15;;;;;;;-1.60;99.28;101926.81;10291584;28;20055;-73
2022/12/01 22:55:43;;;;;;;3.92;0.88;;;;;;;-1.69;99.97;101914.94;10289735;28;20051;-72
2022/12/01 23:00:44;;;;;;;2.80;0.90;;;;;;;-1.97;99.94;101873.34;10290106;28;20436;-73
2022/12/01 23:05:45;;;;;;;3.65;0.88;;;;;;;-1.68;99.64;101907.97;10290022;28;20049;-73
2022/12/01 23:10:46;;;;;;;2.97;0.88;;;;;;;-1.71;100.00;101889.84;10291340;28;20125;-72
2022/12/01 23:15:49;;;;;;;5.13;1.05;;;;;;;-1.55;99.98;101898.00;10289934;28;20129;-72
2022/12/01 23:20:55;;;;;;;2.53;0.90;;;;;;;-1.56;100.00;101888.47;10291241;28;20043;-73
2022/12/01 23:25:57;;;;;;;3.65;0.90;;;;;;;-1.80;100.00;101827.63;10298136;28;20043;-73